CheckWX is a tool to help pilots better visualize weather data.  It is not intended as a substitute for an official pre-flight weather briefing.

08:35:18 UTC

KADH METAR
Ada Regional Airport
Ada, Oklahoma, USA
Current

20 mins ago

KADH 230815Z AUTO 15003KT 10SM SCT039 BKN070 18/16 A3002 RMK AO2
Observed
Apr-23 @ 08:15 UTC
Wind
  • 150° at 3 KTS
Visibility
10 SM
Flight Rules
VFR
Cloud Levels
  • Scattered at 3,900' AGL
  • Broken at 7,000' AGL
Temperature
18°C / 64°F
Dewpoint
16°C / 61°F
Humidity
88%
Altimeter
30.02" Hg
Pressure
1016.62 hPa
Previous

40 mins ago

KADH 230755Z AUTO 14003KT 10SM SCT039 SCT050 OVC070 18/16 A3002 RMK AO2 LTG DSNT NW
Observed
Apr-23 @ 07:55 UTC
Wind
  • 140° at 3 KTS
Visibility
10 SM
Flight Rules
VFR
Cloud Levels
  • Scattered at 3,900' AGL
  • Scattered at 5,000' AGL
  • Overcast at 7,000' AGL
Temperature
18°C / 64°F
Dewpoint
16°C / 61°F
Humidity
88%
Altimeter
30.02" Hg
Pressure
1016.62 hPa
Previous

60 mins ago

KADH 230735Z AUTO 14004KT 10SM SCT046 BKN060 18/16 A3002 RMK AO2 LTG DSNT NW
Observed
Apr-23 @ 07:35 UTC
Wind
  • 140° at 4 KTS
Visibility
10 SM
Flight Rules
VFR
Cloud Levels
  • Scattered at 4,600' AGL
  • Broken at 6,000' AGL
Temperature
18°C / 64°F
Dewpoint
16°C / 61°F
Humidity
88%
Altimeter
30.02" Hg
Pressure
1016.62 hPa